sensor_id;sensor_type;location;lat;lon;timestamp;pressure;altitude;pressure_sealevel;temperature;humidity
45369;BME280;51342;55.250;37.668;2023-04-15T00:02:18;100656.72;;;0.12;33.29
45369;BME280;51342;55.250;37.668;2023-04-15T00:04:52;100657.25;;;0.09;33.37
45369;BME280;51342;55.250;37.668;2023-04-15T00:07:25;100656.19;;;0.07;33.51
45369;BME280;51342;55.250;37.668;2023-04-15T00:09:56;100660.00;;;0.04;33.55
45369;BME280;51342;55.250;37.668;2023-04-15T00:12:28;100665.47;;;-0.01;33.84
45369;BME280;51342;55.250;37.668;2023-04-15T00:15:02;100668.41;;;-0.05;34.04
45369;BME280;51342;55.250;37.668;2023-04-15T00:17:34;100679.88;;;-0.08;34.05
45369;BME280;51342;55.250;37.668;2023-04-15T00:20:06;100679.53;;;-0.11;34.36
45369;BME280;51342;55.250;37.668;2023-04-15T00:22:38;100680.81;;;-0.15;34.23
45369;BME280;51342;55.250;37.668;2023-04-15T00:25:09;100682.06;;;-0.18;34.47
45369;BME280;51342;55.250;37.668;2023-04-15T00:27:40;100685.03;;;-0.22;34.74
45369;BME280;51342;55.250;37.668;2023-04-15T00:30:12;100689.38;;;-0.29;34.78
45369;BME280;51342;55.250;37.668;2023-04-15T00:32:43;100689.22;;;-0.30;34.90
45369;BME280;51342;55.250;37.668;2023-04-15T00:35:16;100697.19;;;-0.34;34.86
45369;BME280;51342;55.250;37.668;2023-04-15T00:37:50;100693.78;;;-0.42;34.82
45369;BME280;51342;55.250;37.668;2023-04-15T00:40:23;100700.19;;;-0.45;34.99
45369;BME280;51342;55.250;37.668;2023-04-15T00:42:55;100701.97;;;-0.51;34.88
45369;BME280;51342;55.250;37.668;2023-04-15T00:45:27;100704.34;;;-0.53;34.90
45369;BME280;51342;55.250;37.668;2023-04-15T00:48:03;100707.09;;;-0.59;35.03
45369;BME280;51342;55.250;37.668;2023-04-15T00:50:35;100717.25;;;-0.59;35.11
45369;BME280;51342;55.250;37.668;2023-04-15T00:53:06;100713.63;;;-0.61;35.10
45369;BME280;51342;55.250;37.668;2023-04-15T00:55:38;100720.16;;;-0.63;35.03
45369;BME280;51342;55.250;37.668;2023-04-15T00:58:10;100717.44;;;-0.64;35.10
45369;BME280;51342;55.250;37.668;2023-04-15T01:00:45;100724.00;;;-0.66;34.97
45369;BME280;51342;55.250;37.668;2023-04-15T01:03:17;100724.72;;;-0.67;34.92
45369;BME280;51342;55.250;37.668;2023-04-15T01:05:48;100727.06;;;-0.69;34.78
45369;BME280;51342;55.250;37.668;2023-04-15T01:08:20;100721.81;;;-0.70;34.70
45369;BME280;51342;55.250;37.668;2023-04-15T01:10:52;100731.06;;;-0.71;34.71
45369;BME280;51342;55.250;37.668;2023-04-15T01:13:24;100730.69;;;-0.74;34.79
45369;BME280;51342;55.250;37.668;2023-04-15T01:15:56;100732.88;;;-0.77;34.81
45369;BME280;51342;55.250;37.668;2023-04-15T01:18:28;100730.19;;;-0.78;34.89
45369;BME280;51342;55.250;37.668;2023-04-15T01:21:00;100732.50;;;-0.80;35.07
45369;BME280;51342;55.250;37.668;2023-04-15T01:23:36;100740.69;;;-0.83;34.88
45369;BME280;51342;55.250;37.668;2023-04-15T01:26:11;100743.41;;;-0.88;35.01
45369;BME280;51342;55.250;37.668;2023-04-15T01:28:43;100751.78;;;-0.89;35.06
45369;BME280;51342;55.250;37.668;2023-04-15T01:31:15;100749.41;;;-0.95;35.23
45369;BME280;51342;55.250;37.668;2023-04-15T01:33:46;100757.56;;;-0.97;35.56
45369;BME280;51342;55.250;37.668;2023-04-15T01:36:19;100761.38;;;-1.01;35.54
45369;BME280;51342;55.250;37.668;2023-04-15T01:38:50;100758.63;;;-1.02;35.67
45369;BME280;51342;55.250;37.668;2023-04-15T01:41:26;100767.38;;;-1.08;35.77
45369;BME280;51342;55.250;37.668;2023-04-15T01:44:03;100772.97;;;-1.10;35.78
45369;BME280;51342;55.250;37.668;2023-04-15T01:46:34;100770.25;;;-1.12;35.70
45369;BME280;51342;55.250;37.668;2023-04-15T01:49:06;100776.06;;;-1.13;36.08
45369;BME280;51342;55.250;37.668;2023-04-15T01:51:42;100768.97;;;-1.15;36.27
45369;BME280;51342;55.250;37.668;2023-04-15T01:54:13;100780.75;;;-1.16;36.28
45369;BME280;51342;55.250;37.668;2023-04-15T01:56:44;100782.75;;;-1.20;36.11
45369;BME280;51342;55.250;37.668;2023-04-15T01:59:16;100782.41;;;-1.23;36.33
45369;BME280;51342;55.250;37.668;2023-04-15T02:01:47;100786.34;;;-1.25;36.36
45369;BME280;51342;55.250;37.668;2023-04-15T02:04:19;100787.66;;;-1.29;36.40
45369;BME280;51342;55.250;37.668;2023-04-15T02:06:52;100794.53;;;-1.35;36.54
45369;BME280;51342;55.250;37.668;2023-04-15T02:09:25;100798.47;;;-1.37;36.69
45369;BME280;51342;55.250;37.668;2023-04-15T02:11:57;100800.84;;;-1.39;36.83
45369;BME280;51342;55.250;37.668;2023-04-15T02:14:28;100805.56;;;-1.42;37.13
45369;BME280;51342;55.250;37.668;2023-04-15T02:17:02;100803.72;;;-1.43;37.19
45369;BME280;51342;55.250;37.668;2023-04-15T02:19:37;100811.88;;;-1.45;36.96
45369;BME280;51342;55.250;37.668;2023-04-15T02:22:09;100810.59;;;-1.49;37.11
45369;BME280;51342;55.250;37.668;2023-04-15T02:24:44;100819.13;;;-1.48;37.33
45369;BME280;51342;55.250;37.668;2023-04-15T02:27:17;100817.13;;;-1.51;37.24
45369;BME280;51342;55.250;37.668;2023-04-15T02:29:48;100812.94;;;-1.57;37.40
45369;BME280;51342;55.250;37.668;2023-04-15T02:32:21;100825.06;;;-1.55;37.52
45369;BME280;51342;55.250;37.668;2023-04-15T02:34:54;100824.00;;;-1.57;37.40
45369;BME280;51342;55.250;37.668;2023-04-15T02:37:27;100829.06;;;-1.57;37.70
45369;BME280;51342;55.250;37.668;2023-04-15T02:40:00;100828.69;;;-1.60;37.86
45369;BME280;51342;55.250;37.668;2023-04-15T02:42:32;100834.47;;;-1.61;37.70
45369;BME280;51342;55.250;37.668;2023-04-15T02:45:06;100843.53;;;-1.63;37.68
45369;BME280;51342;55.250;37.668;2023-04-15T02:47:39;100842.25;;;-1.67;37.89
45369;BME280;51342;55.250;37.668;2023-04-15T02:50:14;100855.66;;;-1.68;37.67
45369;BME280;51342;55.250;37.668;2023-04-15T02:52:46;100849.50;;;-1.70;37.87
45369;BME280;51342;55.250;37.668;2023-04-15T02:55:21;100852.41;;;-1.67;37.88
45369;BME280;51342;55.250;37.668;2023-04-15T02:57:53;100858.19;;;-1.68;38.10
45369;BME280;51342;55.250;37.668;2023-04-15T03:00:24;100867.09;;;-1.64;38.03
45369;BME280;51342;55.250;37.668;2023-04-15T03:02:59;100864.34;;;-1.66;38.03
45369;BME280;51342;55.250;37.668;2023-04-15T03:05:31;100870.19;;;-1.60;38.01
45369;BME280;51342;55.250;37.668;2023-04-15T03:08:04;100873.44;;;-1.61;38.01
45369;BME280;51342;55.250;37.668;2023-04-15T03:10:35;100872.53;;;-1.61;37.89
45369;BME280;51342;55.250;37.668;2023-04-15T03:13:07;100875.47;;;-1.58;37.88
45369;BME280;51342;55.250;37.668;2023-04-15T03:15:38;100881.63;;;-1.56;37.95
45369;BME280;51342;55.250;37.668;2023-04-15T03:18:10;100883.25;;;-1.56;37.72
45369;BME280;51342;55.250;37.668;2023-04-15T03:20:42;100885.09;;;-1.48;37.82
45369;BME280;51342;55.250;37.668;2023-04-15T03:23:17;100893.28;;;-1.44;37.70
45369;BME280;51342;55.250;37.668;2023-04-15T03:25:49;100892.41;;;-1.37;37.67
45369;BME280;51342;55.250;37.668;2023-04-15T03:28:21;100902.25;;;-1.26;37.41
45369;BME280;51342;55.250;37.668;2023-04-15T03:30:52;100897.75;;;-1.14;37.23
45369;BME280;51342;55.250;37.668;2023-04-15T03:33:24;100897.41;;;-1.03;36.96
45369;BME280;51342;55.250;37.668;2023-04-15T03:35:55;100902.72;;;-0.94;37.04
45369;BME280;51342;55.250;37.668;2023-04-15T03:38:29;100902.91;;;-0.93;36.68
45369;BME280;51342;55.250;37.668;2023-04-15T03:41:00;100897.31;;;-0.90;36.75
45369;BME280;51342;55.250;37.668;2023-04-15T03:43:34;100896.41;;;-0.76;36.78
45369;BME280;51342;55.250;37.668;2023-04-15T03:46:06;100913.28;;;-0.63;36.51
45369;BME280;51342;55.250;37.668;2023-04-15T03:48:38;100898.97;;;-0.55;36.25
45369;BME280;51342;55.250;37.668;2023-04-15T03:51:09;100900.59;;;-0.34;36.06
45369;BME280;51342;55.250;37.668;2023-04-15T03:53:41;100898.97;;;-0.12;35.55
45369;BME280;51342;55.250;37.668;2023-04-15T03:56:12;100902.75;;;0.06;35.73
45369;BME280;51342;55.250;37.668;2023-04-15T03:58:43;100894.94;;;0.11;35.62
45369;BME280;51342;55.250;37.668;2023-04-15T04:01:15;100896.03;;;0.20;35.01
45369;BME280;51342;55.250;37.668;2023-04-15T04:03:46;100899.47;;;0.21;34.81
45369;BME280;51342;55.250;37.668;2023-04-15T04:06:18;100898.41;;;0.19;34.92
45369;BME280;51342;55.250;37.668;2023-04-15T04:08:49;100905.47;;;0.21;34.76
45369;BME280;51342;55.250;37.668;2023-04-15T04:11:21;100913.66;;;0.26;34.92
45369;BME280;51342;55.250;37.668;2023-04-15T04:13:52;100915.47;;;0.27;34.70
45369;BME280;51342;55.250;37.668;2023-04-15T04:16:24;100912.19;;;0.35;34.33
45369;BME280;51342;55.250;37.668;2023-04-15T04:18:58;100927.44;;;0.42;34.18
45369;BME280;51342;55.250;37.668;2023-04-15T04:21:30;100924.13;;;0.50;34.32
45369;BME280;51342;55.250;37.668;2023-04-15T04:24:04;100923.41;;;0.59;34.09
45369;BME280;51342;55.250;37.668;2023-04-15T04:26:35;100919.34;;;0.68;33.75
45369;BME280;51342;55.250;37.668;2023-04-15T04:29:07;100918.41;;;0.82;33.65
45369;BME280;51342;55.250;37.668;2023-04-15T04:31:38;100926.22;;;0.83;33.01
45369;BME280;51342;55.250;37.668;2023-04-15T04:34:09;100931.09;;;0.89;32.95
45369;BME280;51342;55.250;37.668;2023-04-15T04:36:41;100927.97;;;0.98;32.87
45369;BME280;51342;55.250;37.668;2023-04-15T04:39:15;100928.47;;;1.10;32.70
45369;BME280;51342;55.250;37.668;2023-04-15T04:41:46;100927.50;;;1.17;32.49
45369;BME280;51342;55.250;37.668;2023-04-15T04:44:18;100933.13;;;1.21;32.51
45369;BME280;51342;55.250;37.668;2023-04-15T04:46:49;100933.44;;;1.31;32.47
45369;BME280;51342;55.250;37.668;2023-04-15T04:49:20;100931.06;;;1.33;32.37
45369;BME280;51342;55.250;37.668;2023-04-15T04:51:52;100927.06;;;1.28;32.10
45369;BME280;51342;55.250;37.668;2023-04-15T04:54:23;100931.84;;;1.25;31.98
45369;BME280;51342;55.250;37.668;2023-04-15T04:56:55;100930.53;;;1.28;31.98
45369;BME280;51342;55.250;37.668;2023-04-15T04:59:28;100925.91;;;1.40;32.21
45369;BME280;51342;55.250;37.668;2023-04-15T05:02:00;100923.72;;;1.43;31.76
45369;BME280;51342;55.250;37.668;2023-04-15T05:04:31;100931.47;;;1.52;31.74
45369;BME280;51342;55.250;37.668;2023-04-15T05:07:03;100926.38;;;1.52;31.94
45369;BME280;51342;55.250;37.668;2023-04-15T05:09:34;100925.72;;;1.69;31.69
45369;BME280;51342;55.250;37.668;2023-04-15T05:12:07;100933.66;;;1.79;31.56
45369;BME280;51342;55.250;37.668;2023-04-15T05:14:40;100933.78;;;1.88;31.44
45369;BME280;51342;55.250;37.668;2023-04-15T05:17:11;100938.47;;;1.92;31.54
45369;BME280;51342;55.250;37.668;2023-04-15T05:19:43;100924.78;;;1.91;31.17
45369;BME280;51342;55.250;37.668;2023-04-15T05:22:14;100947.38;;;1.95;31.21
45369;BME280;51342;55.250;37.668;2023-04-15T05:24:46;100940.47;;;1.94;31.27
45369;BME280;51342;55.250;37.668;2023-04-15T05:27:17;100939.88;;;1.97;30.97
45369;BME280;51342;55.250;37.668;2023-04-15T05:29:49;100928.94;;;1.98;30.38
45369;BME280;51342;55.250;37.668;2023-04-15T05:32:20;100934.47;;;1.94;30.46
45369;BME280;51342;55.250;37.668;2023-04-15T05:34:52;100934.78;;;1.97;30.30
45369;BME280;51342;55.250;37.668;2023-04-15T05:37:23;100938.97;;;1.96;30.16
45369;BME280;51342;55.250;37.668;2023-04-15T05:39:55;100950.53;;;2.08;30.57
45369;BME280;51342;55.250;37.668;2023-04-15T05:42:26;100943.16;;;2.19;30.49
45369;BME280;51342;55.250;37.668;2023-04-15T05:44:58;100953.41;;;2.34;30.28
45369;BME280;51342;55.250;37.668;2023-04-15T05:47:29;100943.94;;;2.33;29.92
45369;BME280;51342;55.250;37.668;2023-04-15T05:50:01;100947.16;;;2.39;29.58
45369;BME280;51342;55.250;37.668;2023-04-15T05:52:32;100951.84;;;2.44;30.21
45369;BME280;51342;55.250;37.668;2023-04-15T05:55:04;100946.91;;;2.45;29.75
45369;BME280;51342;55.250;37.668;2023-04-15T05:57:39;100956.69;;;2.49;29.73
45369;BME280;51342;55.250;37.668;2023-04-15T06:00:11;100941.31;;;2.56;30.14
45369;BME280;51342;55.250;37.668;2023-04-15T06:02:45;100962.19;;;2.68;29.70
45369;BME280;51342;55.250;37.668;2023-04-15T06:05:17;100961.28;;;2.68;29.60
45369;BME280;51342;55.250;37.668;2023-04-15T06:07:48;100952.53;;;2.65;29.53
45369;BME280;51342;55.250;37.668;2023-04-15T06:10:20;100949.47;;;2.77;29.46
45369;BME280;51342;55.250;37.668;2023-04-15T06:12:53;100957.72;;;2.90;29.88
45369;BME280;51342;55.250;37.668;2023-04-15T06:15:27;100954.84;;;3.03;29.52
45369;BME280;51342;55.250;37.668;2023-04-15T06:17:58;100957.13;;;3.08;29.47
45369;BME280;51342;55.250;37.668;2023-04-15T06:20:30;100950.69;;;3.12;29.57
45369;BME280;51342;55.250;37.668;2023-04-15T06:23:02;100951.34;;;3.18;29.50
45369;BME280;51342;55.250;37.668;2023-04-15T06:25:35;100952.25;;;3.18;29.36
45369;BME280;51342;55.250;37.668;2023-04-15T06:28:06;100954.38;;;3.23;29.44
45369;BME280;51342;55.250;37.668;2023-04-15T06:30:38;100966.34;;;3.31;29.34
45369;BME280;51342;55.250;37.668;2023-04-15T06:33:21;100972.22;;;3.30;29.08
45369;BME280;51342;55.250;37.668;2023-04-15T06:35:52;100965.34;;;3.22;28.60
45369;BME280;51342;55.250;37.668;2023-04-15T06:38:24;100967.16;;;3.23;28.89
45369;BME280;51342;55.250;37.668;2023-04-15T06:40:55;100966.75;;;3.27;29.17
45369;BME280;51342;55.250;37.668;2023-04-15T06:43:26;100968.31;;;3.33;29.06
45369;BME280;51342;55.250;37.668;2023-04-15T06:45:58;100969.53;;;3.37;28.75
45369;BME280;51342;55.250;37.668;2023-04-15T06:48:30;100960.84;;;3.43;28.50
45369;BME280;51342;55.250;37.668;2023-04-15T06:51:04;100966.78;;;3.51;28.17
45369;BME280;51342;55.250;37.668;2023-04-15T06:53:36;100981.22;;;3.51;27.94
45369;BME280;51342;55.250;37.668;2023-04-15T06:56:20;100976.28;;;3.52;28.09
45369;BME280;51342;55.250;37.668;2023-04-15T06:58:55;100969.41;;;3.60;28.15
45369;BME280;51342;55.250;37.668;2023-04-15T07:01:30;100980.28;;;3.66;27.61
45369;BME280;51342;55.250;37.668;2023-04-15T07:04:01;100974.91;;;3.71;27.86
45369;BME280;51342;55.250;37.668;2023-04-15T07:06:32;100968.19;;;3.81;28.09
45369;BME280;51342;55.250;37.668;2023-04-15T07:09:07;100964.75;;;3.89;27.94
45369;BME280;51342;55.250;37.668;2023-04-15T07:11:38;100972.28;;;3.87;27.43
45369;BME280;51342;55.250;37.668;2023-04-15T07:14:16;100966.78;;;3.76;26.46
45369;BME280;51342;55.250;37.668;2023-04-15T07:16:47;100963.47;;;3.77;27.04
45369;BME280;51342;55.250;37.668;2023-04-15T07:19:19;100962.59;;;3.85;26.96
45369;BME280;51342;55.250;37.668;2023-04-15T07:21:53;100959.97;;;3.92;27.03
45369;BME280;51342;55.250;37.668;2023-04-15T07:24:24;100956.66;;;4.02;26.96
45369;BME280;51342;55.250;37.668;2023-04-15T07:26:58;100962.47;;;4.16;26.47
45369;BME280;51342;55.250;37.668;2023-04-15T07:29:31;100961.59;;;4.24;26.16
45369;BME280;51342;55.250;37.668;2023-04-15T07:32:04;100961.59;;;4.24;26.10
45369;BME280;51342;55.250;37.668;2023-04-15T07:34:36;100961.50;;;4.32;26.61
45369;BME280;51342;55.250;37.668;2023-04-15T07:37:08;100956.84;;;4.45;26.61
45369;BME280;51342;55.250;37.668;2023-04-15T07:39:39;100957.13;;;4.48;25.96
45369;BME280;51342;55.250;37.668;2023-04-15T07:42:11;100975.41;;;4.51;25.91
45369;BME280;51342;55.250;37.668;2023-04-15T07:44:42;100962.31;;;4.57;25.68
45369;BME280;51342;55.250;37.668;2023-04-15T07:47:19;100967.28;;;4.55;25.06
45369;BME280;51342;55.250;37.668;2023-04-15T07:49:50;100960.03;;;4.51;25.05
45369;BME280;51342;55.250;37.668;2023-04-15T07:52:22;100956.75;;;4.61;25.28
45369;BME280;51342;55.250;37.668;2023-04-15T07:54:53;100958.22;;;4.59;25.04
45369;BME280;51342;55.250;37.668;2023-04-15T07:57:25;100960.50;;;4.56;24.66
45369;BME280;51342;55.250;37.668;2023-04-15T07:59:56;100957.66;;;4.61;24.89
45369;BME280;51342;55.250;37.668;2023-04-15T08:02:28;100956.13;;;4.63;24.63
45369;BME280;51342;55.250;37.668;2023-04-15T08:05:00;100966.56;;;4.73;24.65
45369;BME280;51342;55.250;37.668;2023-04-15T08:07:35;100963.56;;;4.77;24.47
45369;BME280;51342;55.250;37.668;2023-04-15T08:10:06;100961.44;;;4.82;25.00
45369;BME280;51342;55.250;37.668;2023-04-15T08:12:38;100964.34;;;4.94;24.78
45369;BME280;51342;55.250;37.668;2023-04-15T08:15:10;100967.66;;;5.01;24.89
45369;BME280;51342;55.250;37.668;2023-04-15T08:17:41;100962.38;;;5.09;25.22
45369;BME280;51342;55.250;37.668;2023-04-15T08:20:13;100957.84;;;5.15;24.75
45369;BME280;51342;55.250;37.668;2023-04-15T08:22:44;100963.56;;;5.21;24.77
45369;BME280;51342;55.250;37.668;2023-04-15T08:25:18;100957.69;;;5.30;24.80
45369;BME280;51342;55.250;37.668;2023-04-15T08:27:50;100954.22;;;5.30;24.83
45369;BME280;51342;55.250;37.668;2023-04-15T08:30:21;100956.16;;;5.32;24.16
45369;BME280;51342;55.250;37.668;2023-04-15T08:32:53;100943.81;;;5.28;24.53
45369;BME280;51342;55.250;37.668;2023-04-15T08:35:24;100957.84;;;5.41;24.76
45369;BME280;51342;55.250;37.668;2023-04-15T08:37:56;100946.66;;;5.49;24.46
45369;BME280;51342;55.250;37.668;2023-04-15T08:40:30;100957.97;;;5.51;23.59
45369;BME280;51342;55.250;37.668;2023-04-15T08:43:09;100948.16;;;5.47;23.37
45369;BME280;51342;55.250;37.668;2023-04-15T08:45:42;100934.59;;;5.39;23.88
45369;BME280;51342;55.250;37.668;2023-04-15T08:48:14;100949.97;;;5.48;24.09
45369;BME280;51342;55.250;37.668;2023-04-15T08:50:49;100967.94;;;5.48;24.19
45369;BME280;51342;55.250;37.668;2023-04-15T08:53:23;100940.00;;;5.42;23.87
45369;BME280;51342;55.250;37.668;2023-04-15T08:55:56;100942.28;;;5.48;24.08
45369;BME280;51342;55.250;37.668;2023-04-15T08:58:28;100945.25;;;5.61;23.18
45369;BME280;51342;55.250;37.668;2023-04-15T09:01:00;100946.34;;;5.63;23.69
45369;BME280;51342;55.250;37.668;2023-04-15T09:03:32;100936.50;;;5.68;23.28
45369;BME280;51342;55.250;37.668;2023-04-15T09:06:05;100950.53;;;5.71;23.11
45369;BME280;51342;55.250;37.668;2023-04-15T09:08:36;100951.16;;;5.69;22.89
45369;BME280;51342;55.250;37.668;2023-04-15T09:11:08;100951.16;;;5.69;23.20
45369;BME280;51342;55.250;37.668;2023-04-15T09:13:39;100943.44;;;5.69;23.30
45369;BME280;51342;55.250;37.668;2023-04-15T09:16:12;100936.66;;;5.69;23.30
45369;BME280;51342;55.250;37.668;2023-04-15T09:18:43;100933.91;;;5.76;23.49
45369;BME280;51342;55.250;37.668;2023-04-15T09:21:16;100938.72;;;5.91;23.64
45369;BME280;51342;55.250;37.668;2023-04-15T09:23:56;100928.28;;;5.98;23.16
45369;BME280;51342;55.250;37.668;2023-04-15T09:26:37;100942.00;;;6.07;23.29
45369;BME280;51342;55.250;37.668;2023-04-15T09:29:10;100928.34;;;6.17;23.58
45369;BME280;51342;55.250;37.668;2023-04-15T09:31:44;100938.09;;;6.29;23.26
45369;BME280;51342;55.250;37.668;2023-04-15T09:34:16;100935.06;;;6.33;22.66
45369;BME280;51342;55.250;37.668;2023-04-15T09:36:55;100918.31;;;6.28;22.73
45369;BME280;51342;55.250;37.668;2023-04-15T09:39:27;100932.63;;;6.35;22.85
45369;BME280;51342;55.250;37.668;2023-04-15T09:42:14;100935.78;;;6.14;23.09
45369;BME280;51342;55.250;37.668;2023-04-15T09:44:47;100938.88;;;6.28;23.00
45369;BME280;51342;55.250;37.668;2023-04-15T09:47:29;100932.97;;;6.29;22.74
45369;BME280;51342;55.250;37.668;2023-04-15T09:50:01;100924.34;;;6.29;22.73
45369;BME280;51342;55.250;37.668;2023-04-15T09:52:40;100927.66;;;6.36;22.66
45369;BME280;51342;55.250;37.668;2023-04-15T09:55:14;100930.31;;;6.47;22.51
45369;BME280;51342;55.250;37.668;2023-04-15T09:57:47;100937.06;;;6.55;22.20
45369;BME280;51342;55.250;37.668;2023-04-15T10:00:18;100931.47;;;6.59;22.67
45369;BME280;51342;55.250;37.668;2023-04-15T10:02:50;100926.88;;;6.65;22.39
45369;BME280;51342;55.250;37.668;2023-04-15T10:05:22;100940.97;;;6.60;22.24
45369;BME280;51342;55.250;37.668;2023-04-15T10:07:53;100931.59;;;6.60;22.60
45369;BME280;51342;55.250;37.668;2023-04-15T10:10:25;100941.19;;;6.72;22.37
45369;BME280;51342;55.250;37.668;2023-04-15T10:12:56;100937.94;;;6.83;22.50
45369;BME280;51342;55.250;37.668;2023-04-15T10:15:28;100940.38;;;6.81;22.16
45369;BME280;51342;55.250;37.668;2023-04-15T10:18:00;100932.38;;;6.78;22.33
45369;BME280;51342;55.250;37.668;2023-04-15T10:20:34;100932.03;;;6.84;22.18
45369;BME280;51342;55.250;37.668;2023-04-15T10:23:08;100936.91;;;6.81;21.70
45369;BME280;51342;55.250;37.668;2023-04-15T10:25:40;100932.94;;;6.84;21.61
45369;BME280;51342;55.250;37.668;2023-04-15T10:28:14;100924.63;;;6.87;21.96
45369;BME280;51342;55.250;37.668;2023-04-15T10:30:47;100929.31;;;7.01;22.05
45369;BME280;51342;55.250;37.668;2023-04-15T10:33:22;100926.47;;;7.17;22.17
45369;BME280;51342;55.250;37.668;2023-04-15T10:35:54;100922.72;;;7.32;21.86
45369;BME280;51342;55.250;37.668;2023-04-15T10:38:33;100925.97;;;7.40;20.95
45369;BME280;51342;55.250;37.668;2023-04-15T10:41:14;100924.28;;;7.40;21.00
45369;BME280;51342;55.250;37.668;2023-04-15T10:43:54;100927.69;;;7.50;21.14
45369;BME280;51342;55.250;37.668;2023-04-15T10:46:37;100924.16;;;7.39;21.18
45369;BME280;51342;55.250;37.668;2023-04-15T10:49:12;100925.06;;;7.39;21.27
45369;BME280;51342;55.250;37.668;2023-04-15T10:51:50;100936.25;;;7.40;21.14
45369;BME280;51342;55.250;37.668;2023-04-15T10:59:36;100928.00;;;7.63;21.19
45369;BME280;51342;55.250;37.668;2023-04-15T11:02:12;100921.47;;;7.66;20.70
45369;BME280;51342;55.250;37.668;2023-04-15T11:04:55;100928.28;;;7.66;20.86
45369;BME280;51342;55.250;37.668;2023-04-15T11:12:57;100917.75;;;7.73;20.56
45369;BME280;51342;55.250;37.668;2023-04-15T11:15:32;100921.88;;;7.81;20.34
45369;BME280;51342;55.250;37.668;2023-04-15T11:20:42;100919.31;;;7.81;20.15
45369;BME280;51342;55.250;37.668;2023-04-15T11:23:58;100920.84;;;7.79;20.55
45369;BME280;51342;55.250;37.668;2023-04-15T11:26:11;100918.41;;;7.81;20.63
45369;BME280;51342;55.250;37.668;2023-04-15T11:28:44;100910.44;;;7.88;21.01
45369;BME280;51342;55.250;37.668;2023-04-15T11:31:16;100915.63;;;7.98;20.55
45369;BME280;51342;55.250;37.668;2023-04-15T11:33:59;100902.09;;;7.90;20.49
45369;BME280;51342;55.250;37.668;2023-04-15T11:36:31;100910.47;;;7.98;20.87
45369;BME280;51342;55.250;37.668;2023-04-15T11:39:06;100904.69;;;8.01;20.56
45369;BME280;51342;55.250;37.668;2023-04-15T11:41:37;100906.75;;;8.05;21.35
45369;BME280;51342;55.250;37.668;2023-04-15T11:44:15;100903.66;;;8.09;20.69
45369;BME280;51342;55.250;37.668;2023-04-15T11:46:47;100893.72;;;8.03;20.39
45369;BME280;51342;55.250;37.668;2023-04-15T11:49:29;100900.31;;;8.10;20.53
45369;BME280;51342;55.250;37.668;2023-04-15T11:52:10;100911.53;;;8.10;20.05
45369;BME280;51342;55.250;37.668;2023-04-15T11:54:41;100907.25;;;8.11;19.82
45369;BME280;51342;55.250;37.668;2023-04-15T11:57:13;100895.69;;;8.06;19.53
45369;BME280;51342;55.250;37.668;2023-04-15T11:59:44;100900.31;;;8.10;19.97
45369;BME280;51342;55.250;37.668;2023-04-15T12:02:16;100895.81;;;8.07;19.44
45369;BME280;51342;55.250;37.668;2023-04-15T12:04:47;100891.81;;;8.11;20.04
45369;BME280;51342;55.250;37.668;2023-04-15T12:07:19;100888.72;;;8.15;20.50
45369;BME280;51342;55.250;37.668;2023-04-15T12:09:54;100898.66;;;8.20;20.28
45369;BME280;51342;55.250;37.668;2023-04-15T12:12:27;100871.47;;;8.24;20.42
45369;BME280;51342;55.250;37.668;2023-04-15T12:14:58;100886.41;;;8.28;20.47
45369;BME280;51342;55.250;37.668;2023-04-15T12:17:30;100889.16;;;8.30;20.08
45369;BME280;51342;55.250;37.668;2023-04-15T12:20:02;100889.53;;;8.24;19.68
45369;BME280;51342;55.250;37.668;2023-04-15T12:22:36;100887.97;;;8.26;20.17
45369;BME280;51342;55.250;37.668;2023-04-15T12:25:08;100885.50;;;8.28;20.18
45369;BME280;51342;55.250;37.668;2023-04-15T12:27:40;100898.19;;;8.35;20.19
45369;BME280;51342;55.250;37.668;2023-04-15T12:30:11;100883.09;;;8.29;19.27
45369;BME280;51342;55.250;37.668;2023-04-15T12:32:44;100884.38;;;8.24;19.64
45369;BME280;51342;55.250;37.668;2023-04-15T12:35:17;100891.56;;;8.28;19.34
45369;BME280;51342;55.250;37.668;2023-04-15T12:37:49;100891.84;;;8.31;20.12
45369;BME280;51342;55.250;37.668;2023-04-15T12:40:22;100889.19;;;8.40;19.66
45369;BME280;51342;55.250;37.668;2023-04-15T12:42:53;100882.34;;;8.40;19.77
45369;BME280;51342;55.250;37.668;2023-04-15T12:45:26;100884.28;;;8.43;20.25
45369;BME280;51342;55.250;37.668;2023-04-15T12:47:57;100880.91;;;8.44;19.95
45369;BME280;51342;55.250;37.668;2023-04-15T12:50:29;100876.16;;;8.48;20.40
45369;BME280;51342;55.250;37.668;2023-04-15T12:53:02;100884.28;;;8.53;20.12
45369;BME280;51342;55.250;37.668;2023-04-15T12:55:33;100880.16;;;8.55;19.52
45369;BME280;51342;55.250;37.668;2023-04-15T12:58:05;100881.97;;;8.46;19.38
45369;BME280;51342;55.250;37.668;2023-04-15T13:00:37;100891.38;;;8.45;19.49
45369;BME280;51342;55.250;37.668;2023-04-15T13:03:09;100884.41;;;8.44;19.52
45369;BME280;51342;55.250;37.668;2023-04-15T13:05:40;100885.28;;;8.45;19.60
45369;BME280;51342;55.250;37.668;2023-04-15T13:08:12;100877.72;;;8.46;19.75
45369;BME280;51342;55.250;37.668;2023-04-15T13:10:43;100885.06;;;8.52;19.85
45369;BME280;51342;55.250;37.668;2023-04-15T13:13:15;100877.44;;;8.54;20.22
45369;BME280;51342;55.250;37.668;2023-04-15T13:15:49;100875.25;;;8.58;20.46
45369;BME280;51342;55.250;37.668;2023-04-15T13:18:20;100875.13;;;8.57;19.59
45369;BME280;51342;55.250;37.668;2023-04-15T13:20:53;100879.25;;;8.55;19.88
45369;BME280;51342;55.250;37.668;2023-04-15T13:23:26;100883.88;;;8.48;19.78
45369;BME280;51342;55.250;37.668;2023-04-15T13:25:57;100889.16;;;8.50;19.71
45369;BME280;51342;55.250;37.668;2023-04-15T13:28:29;100886.88;;;8.53;20.18
45369;BME280;51342;55.250;37.668;2023-04-15T13:31:00;100885.56;;;8.58;19.95